createdAt,value
2023-04-18T00:01:23.426Z,91.20
2023-04-18T00:03:50.618Z,91.90
2023-04-18T00:06:17.912Z,91.00
2023-04-18T00:08:44.628Z,92.00
2023-04-18T00:11:11.483Z,91.50
2023-04-18T00:13:39.449Z,91.90
2023-04-18T00:16:07.782Z,91.80
2023-04-18T00:18:34.622Z,92.40
2023-04-18T00:21:02.047Z,92.50
2023-04-18T00:23:30.237Z,92.50
2023-04-18T00:25:57.005Z,92.60
2023-04-18T00:28:23.958Z,92.50
2023-04-18T00:30:50.892Z,92.40
2023-04-18T00:33:18.053Z,92.50
2023-04-18T00:35:44.887Z,92.40
2023-04-18T00:38:11.762Z,92.40
2023-04-18T00:40:38.884Z,92.80
2023-04-18T00:43:07.589Z,92.30
2023-04-18T00:45:34.373Z,92.30
2023-04-18T00:48:01.581Z,92.20
2023-04-18T00:50:28.398Z,92.30
2023-04-18T00:52:55.170Z,92.30
2023-04-18T00:55:22.285Z,92.80
2023-04-18T00:57:49.129Z,92.70
2023-04-18T01:00:15.955Z,92.70
2023-04-18T01:02:42.890Z,92.60
2023-04-18T01:05:10.053Z,92.80
2023-04-18T01:07:38.052Z,92.60
2023-04-18T01:10:04.954Z,92.50
2023-04-18T01:12:31.863Z,92.50
2023-04-18T01:15:00.660Z,92.60
2023-04-18T01:17:28.523Z,92.70
2023-04-18T01:19:56.823Z,92.60
2023-04-18T01:22:25.626Z,92.80
2023-04-18T01:24:52.456Z,92.60
2023-04-18T01:27:19.317Z,92.40
2023-04-18T01:29:46.029Z,92.70
2023-04-18T01:32:12.819Z,92.90
2023-04-18T01:34:39.639Z,92.50
2023-04-18T01:37:06.410Z,92.60
2023-04-18T01:39:33.145Z,92.50
2023-04-18T01:42:02.012Z,91.60
2023-04-18T01:44:28.766Z,92.10
2023-04-18T01:46:55.597Z,92.70
2023-04-18T01:49:22.571Z,92.70
2023-04-18T01:51:49.258Z,92.60
2023-04-18T01:54:16.559Z,92.30
2023-04-18T01:56:43.662Z,92.40
2023-04-18T01:59:10.390Z,92.50
2023-04-18T02:01:37.199Z,92.20
2023-04-18T02:04:04.016Z,92.30
2023-04-18T02:06:30.933Z,92.30
2023-04-18T02:08:57.669Z,92.30
2023-04-18T02:11:24.509Z,92.40
2023-04-18T02:13:52.201Z,92.70
2023-04-18T02:16:19.004Z,92.30
2023-04-18T02:18:45.866Z,92.60
2023-04-18T02:21:20.734Z,92.30
2023-04-18T02:23:47.448Z,92.20
2023-04-18T02:26:14.256Z,92.20
2023-04-18T02:28:41.065Z,92.20
2023-04-18T02:31:14.547Z,91.90
2023-04-18T02:33:42.279Z,92.00
2023-04-18T02:36:09.419Z,92.10
2023-04-18T02:38:36.247Z,92.00
2023-04-18T02:41:03.037Z,91.80
2023-04-18T02:43:29.763Z,92.00
2023-04-18T02:45:56.645Z,91.90
2023-04-18T02:48:23.761Z,92.00
2023-04-18T02:50:50.517Z,91.80
2023-04-18T02:53:17.329Z,92.00
2023-04-18T02:55:44.070Z,92.00
2023-04-18T02:58:11.459Z,91.90
2023-04-18T03:00:38.373Z,92.00
2023-04-18T03:03:05.677Z,91.80
2023-04-18T03:05:32.543Z,91.30
2023-04-18T03:07:59.434Z,91.70
2023-04-18T03:10:26.153Z,91.10
2023-04-18T03:12:52.845Z,91.40
2023-04-18T03:15:19.686Z,91.80
2023-04-18T03:17:46.446Z,91.80
2023-04-18T03:20:13.225Z,91.60
2023-04-18T03:22:40.111Z,91.60
2023-04-18T03:25:07.367Z,91.50
2023-04-18T03:27:34.183Z,91.50
2023-04-18T03:30:01.305Z,91.80
2023-04-18T03:32:28.241Z,91.30
2023-04-18T03:34:55.030Z,91.50
2023-04-18T03:37:21.912Z,91.50
2023-04-18T03:39:48.702Z,91.50
2023-04-18T03:42:15.552Z,91.60
2023-04-18T03:44:42.337Z,91.70
2023-04-18T03:47:09.088Z,91.70
2023-04-18T03:49:35.982Z,91.80
2023-04-18T03:52:02.759Z,91.80
2023-04-18T03:54:29.570Z,91.80
2023-04-18T03:56:57.652Z,91.60
2023-04-18T03:59:24.412Z,91.40
2023-04-18T04:01:51.257Z,91.40
2023-04-18T04:04:18.148Z,91.50
2023-04-18T04:06:45.578Z,91.40
2023-04-18T04:09:12.342Z,91.50
2023-04-18T04:11:39.716Z,91.50
2023-04-18T04:14:06.501Z,91.50
2023-04-18T04:16:33.298Z,91.60
2023-04-18T04:19:00.129Z,91.50
2023-04-18T04:21:27.721Z,91.30
2023-04-18T04:23:54.395Z,91.50
2023-04-18T04:26:23.166Z,91.30
2023-04-18T04:28:51.688Z,91.50
2023-04-18T04:31:18.809Z,91.10
2023-04-18T04:33:46.685Z,91.20
2023-04-18T04:36:16.698Z,91.20
2023-04-18T04:38:45.647Z,91.10
2023-04-18T04:41:12.846Z,91.20
2023-04-18T04:43:41.353Z,91.10
2023-04-18T04:46:08.807Z,90.90
2023-04-18T04:48:35.642Z,91.00
2023-04-18T04:51:02.538Z,91.20
2023-04-18T04:53:32.474Z,90.40
2023-04-18T04:55:59.470Z,90.50
2023-04-18T04:58:26.375Z,90.40
2023-04-18T05:00:53.834Z,90.50
2023-04-18T05:03:21.145Z,90.80
2023-04-18T05:05:48.162Z,91.20
2023-04-18T05:08:15.018Z,91.00
2023-04-18T05:10:43.252Z,91.40
2023-04-18T05:13:10.186Z,91.00
2023-04-18T05:15:36.967Z,90.60
2023-04-18T05:18:03.956Z,90.70
2023-04-18T05:20:31.046Z,90.80
2023-04-18T05:22:57.944Z,90.60
2023-04-18T05:25:24.911Z,91.00
2023-04-18T05:27:52.201Z,90.80
2023-04-18T05:30:18.990Z,90.80
2023-04-18T05:32:45.851Z,90.60
2023-04-18T05:35:12.827Z,90.70
2023-04-18T05:37:39.723Z,90.90
2023-04-18T05:40:06.967Z,90.60
2023-04-18T05:42:33.824Z,90.70
2023-04-18T05:45:00.666Z,90.70
2023-04-18T05:47:28.644Z,90.90
2023-04-18T05:49:55.947Z,91.00
2023-04-18T05:52:22.776Z,91.10
2023-04-18T05:54:49.633Z,91.20
2023-04-18T05:57:16.485Z,91.30
2023-04-18T05:59:43.282Z,91.50
2023-04-18T06:02:13.567Z,91.50
2023-04-18T06:04:42.095Z,91.60
2023-04-18T06:07:09.906Z,91.70
2023-04-18T06:09:36.913Z,91.50
2023-04-18T06:12:04.090Z,91.40
2023-04-18T06:14:30.990Z,91.50
2023-04-18T06:16:57.743Z,91.50
2023-04-18T06:19:24.684Z,91.70
2023-04-18T06:21:52.447Z,91.90
2023-04-18T06:24:19.192Z,92.00
2023-04-18T06:26:45.980Z,91.90
2023-04-18T06:29:12.668Z,91.90
2023-04-18T06:31:39.440Z,92.10
2023-04-18T06:34:06.483Z,92.20
2023-04-18T06:36:33.475Z,92.10
2023-04-18T06:39:00.269Z,92.10
2023-04-18T06:41:27.178Z,92.30
2023-04-18T06:44:03.370Z,92.10
2023-04-18T06:46:32.059Z,92.40
2023-04-18T06:48:58.910Z,92.20
2023-04-18T06:51:25.632Z,92.30
2023-04-18T06:53:55.483Z,92.20
2023-04-18T06:56:22.222Z,92.40
2023-04-18T06:58:49.706Z,92.50
2023-04-18T07:01:16.707Z,92.50
2023-04-18T07:03:43.736Z,92.70
2023-04-18T07:06:11.032Z,92.40
2023-04-18T07:08:38.076Z,92.30
2023-04-18T07:11:05.678Z,92.50
2023-04-18T07:13:32.461Z,92.90
2023-04-18T07:15:59.472Z,92.60
2023-04-18T07:18:34.732Z,92.80
2023-04-18T07:21:07.692Z,92.40
2023-04-18T07:23:35.118Z,92.60
2023-04-18T07:26:02.935Z,92.40
2023-04-18T07:28:31.214Z,92.50
2023-04-18T07:30:58.314Z,92.70
2023-04-18T07:33:25.539Z,92.10
2023-04-18T07:35:53.264Z,92.50
2023-04-18T07:38:20.224Z,93.00
2023-04-18T07:40:46.916Z,92.80
2023-04-18T07:43:13.868Z,92.20
2023-04-18T07:45:43.255Z,91.50
2023-04-18T07:48:11.402Z,91.30
2023-04-18T07:50:38.473Z,91.10
2023-04-18T07:53:05.308Z,90.30
2023-04-18T07:55:32.136Z,90.40
2023-04-18T07:57:58.950Z,90.50
2023-04-18T08:00:26.400Z,90.30
2023-04-18T08:02:53.527Z,90.20
2023-04-18T08:05:20.678Z,90.00
2023-04-18T08:07:47.372Z,89.00
2023-04-18T08:10:14.096Z,88.90
2023-04-18T08:12:41.102Z,89.20
2023-04-18T08:15:08.200Z,88.80
2023-04-18T08:17:34.985Z,89.10
2023-04-18T08:20:05.197Z,88.00
2023-04-18T08:22:32.014Z,88.30
2023-04-18T08:25:04.991Z,88.10
2023-04-18T08:27:33.295Z,87.10
2023-04-18T08:30:00.596Z,87.80
2023-04-18T08:32:27.449Z,86.60
2023-04-18T08:34:54.285Z,86.70
2023-04-18T08:37:20.969Z,86.20
2023-04-18T08:39:47.648Z,85.70
2023-04-18T08:42:16.481Z,85.70
2023-04-18T08:44:43.261Z,84.70
2023-04-18T08:47:10.010Z,83.20
2023-04-18T08:49:36.838Z,80.90
2023-04-18T08:52:05.095Z,80.90
2023-04-18T08:54:32.329Z,82.70
2023-04-18T08:57:06.153Z,82.90
2023-04-18T08:59:35.611Z,82.80
2023-04-18T09:02:04.108Z,83.00
2023-04-18T09:04:38.562Z,80.20
2023-04-18T09:07:06.827Z,80.70
2023-04-18T09:09:43.668Z,81.00
2023-04-18T09:12:11.325Z,80.70
2023-04-18T09:14:42.898Z,82.00
2023-04-18T09:17:11.803Z,83.20
2023-04-18T09:19:45.094Z,82.60
2023-04-18T09:22:13.175Z,82.20
2023-04-18T09:24:47.497Z,83.00
2023-04-18T09:27:14.383Z,81.70
2023-04-18T09:29:49.578Z,82.80
2023-04-18T09:32:20.727Z,82.40
2023-04-18T09:34:47.437Z,80.40
2023-04-18T09:37:14.498Z,78.70
2023-04-18T09:39:42.775Z,80.00
2023-04-18T09:42:10.713Z,83.10
2023-04-18T09:44:38.509Z,80.70
2023-04-18T09:47:06.759Z,78.50
2023-04-18T09:49:33.576Z,77.40
2023-04-18T09:52:01.945Z,78.10
2023-04-18T09:54:31.071Z,78.70
2023-04-18T09:56:58.851Z,79.60
2023-04-18T09:59:57.818Z,79.20
2023-04-18T10:02:26.076Z,79.30
2023-04-18T10:04:54.313Z,78.90
2023-04-18T10:07:21.734Z,79.80
2023-04-18T10:09:49.128Z,78.50
2023-04-18T10:12:17.136Z,79.40
2023-04-18T10:14:44.413Z,80.20
2023-04-18T10:17:11.838Z,81.30
2023-04-18T10:19:41.978Z,79.70
2023-04-18T10:22:08.877Z,79.20
2023-04-18T10:24:49.460Z,77.50
2023-04-18T10:27:17.165Z,76.90
2023-04-18T10:29:48.212Z,78.20
2023-04-18T10:32:15.012Z,79.00
2023-04-18T10:34:41.877Z,79.50
2023-04-18T10:37:08.641Z,80.20
2023-04-18T10:40:07.851Z,81.60
2023-04-18T10:43:00.806Z,81.50
2023-04-18T10:45:29.810Z,80.70
2023-04-18T10:48:15.429Z,74.80
2023-04-18T10:51:01.081Z,74.20
2023-04-18T10:53:27.965Z,77.10
2023-04-18T10:55:55.315Z,77.60
2023-04-18T10:58:22.475Z,76.60
2023-04-18T11:00:51.560Z,76.30
2023-04-18T11:03:18.450Z,76.10
2023-04-18T11:05:45.404Z,72.60
2023-04-18T11:08:22.819Z,74.90
2023-04-18T11:10:59.592Z,73.90
2023-04-18T11:13:27.003Z,73.70
2023-04-18T11:15:53.819Z,74.20
2023-04-18T11:18:20.652Z,74.80
2023-04-18T11:20:51.679Z,76.20
2023-04-18T11:23:25.063Z,74.80
2023-04-18T11:25:54.087Z,76.40
2023-04-18T11:28:21.595Z,78.00
2023-04-18T11:30:48.696Z,77.00
2023-04-18T11:33:15.819Z,75.10
2023-04-18T11:35:43.676Z,74.10
2023-04-18T11:38:11.972Z,73.10
2023-04-18T11:40:38.771Z,71.00
2023-04-18T11:43:06.123Z,71.30
2023-04-18T11:45:33.087Z,69.10
2023-04-18T11:48:00.983Z,69.60
2023-04-18T11:50:27.799Z,69.00
2023-04-18T11:52:55.168Z,68.30
2023-04-18T11:55:23.883Z,66.60
2023-04-18T11:57:52.117Z,65.20
2023-04-18T12:00:21.984Z,67.10
2023-04-18T12:02:50.244Z,65.70
2023-04-18T12:05:24.985Z,66.40
2023-04-18T12:07:51.881Z,67.30
2023-04-18T12:10:21.654Z,65.10
2023-04-18T12:12:49.319Z,64.50
2023-04-18T12:15:16.709Z,64.70
2023-04-18T12:17:48.638Z,65.10
2023-04-18T12:20:16.925Z,64.80
2023-04-18T12:22:48.996Z,65.90
2023-04-18T12:25:27.619Z,66.50
2023-04-18T12:27:58.182Z,64.80
2023-04-18T12:30:34.138Z,66.00
2023-04-18T12:33:04.246Z,66.80
2023-04-18T12:35:32.110Z,68.10
2023-04-18T12:38:00.469Z,67.20
2023-04-18T12:40:27.582Z,67.70
2023-04-18T12:42:54.580Z,66.70
2023-04-18T12:45:22.610Z,66.80
2023-04-18T12:47:51.856Z,68.10
2023-04-18T12:50:20.098Z,67.90
2023-04-18T12:52:47.243Z,66.50
2023-04-18T12:55:14.603Z,65.60
2023-04-18T12:57:42.932Z,66.60
2023-04-18T13:00:11.630Z,66.40
2023-04-18T13:02:39.423Z,67.40
2023-04-18T13:05:07.103Z,66.10
2023-04-18T13:07:34.124Z,66.90
2023-04-18T13:10:00.958Z,66.60
2023-04-18T13:12:29.499Z,65.90
2023-04-18T13:14:57.109Z,66.30
2023-04-18T13:17:23.834Z,65.30
2023-04-18T13:19:51.198Z,65.20
2023-04-18T13:22:19.770Z,63.60
2023-04-18T13:24:46.758Z,64.50
2023-04-18T13:27:16.383Z,64.00
2023-04-18T13:29:43.527Z,63.80
2023-04-18T13:32:10.364Z,63.90
2023-04-18T13:34:38.095Z,65.50
2023-04-18T13:37:05.088Z,64.00
2023-04-18T13:39:32.424Z,64.00
2023-04-18T13:41:59.253Z,66.00
2023-04-18T13:44:26.150Z,65.50
2023-04-18T13:46:52.987Z,67.10
2023-04-18T13:49:19.825Z,68.40
2023-04-18T13:51:46.859Z,66.30
2023-04-18T13:54:16.570Z,67.60
2023-04-18T13:56:43.326Z,69.00
2023-04-18T13:59:10.061Z,67.90
2023-04-18T14:01:36.813Z,66.60
2023-04-18T14:04:03.881Z,67.00
2023-04-18T14:06:31.109Z,66.80
2023-04-18T14:08:59.169Z,68.20
2023-04-18T14:11:25.901Z,66.90
2023-04-18T14:13:52.803Z,68.20
2023-04-18T14:16:19.622Z,69.10
2023-04-18T14:18:46.367Z,68.40
2023-04-18T14:21:13.150Z,70.30
2023-04-18T14:23:39.975Z,68.30
2023-04-18T14:26:06.734Z,67.30
2023-04-18T14:28:33.803Z,67.90
2023-04-18T14:31:02.515Z,67.70
2023-04-18T14:33:29.384Z,68.20
2023-04-18T14:35:56.485Z,67.60
2023-04-18T14:38:23.227Z,67.10
2023-04-18T14:40:49.964Z,66.00
2023-04-18T14:43:16.859Z,66.90
2023-04-18T14:45:43.552Z,67.90
2023-04-18T14:48:10.434Z,68.90
2023-04-18T14:50:38.725Z,70.30
2023-04-18T14:53:06.083Z,70.40
2023-04-18T14:55:34.043Z,72.00
2023-04-18T14:58:01.033Z,72.20
2023-04-18T15:00:28.218Z,72.90
2023-04-18T15:02:55.053Z,73.70
2023-04-18T15:05:23.891Z,74.10
2023-04-18T15:07:53.616Z,73.30
2023-04-18T15:10:22.374Z,73.70
2023-04-18T15:12:49.236Z,74.90
2023-04-18T15:15:16.260Z,75.20
2023-04-18T15:17:42.976Z,76.80
2023-04-18T15:20:09.935Z,77.40
2023-04-18T15:22:37.080Z,76.00
2023-04-18T15:25:04.643Z,76.70
2023-04-18T15:27:31.522Z,76.50
2023-04-18T15:29:58.222Z,75.90
2023-04-18T15:32:25.020Z,77.40
2023-04-18T15:34:51.873Z,77.00
2023-04-18T15:37:18.603Z,78.50
2023-04-18T15:39:45.324Z,78.90
2023-04-18T15:42:12.051Z,78.50
2023-04-18T15:44:38.791Z,79.10
2023-04-18T15:47:05.517Z,79.20
2023-04-18T15:49:32.415Z,80.10
2023-04-18T15:51:59.174Z,80.00
2023-04-18T15:54:25.966Z,79.00
2023-04-18T15:56:52.716Z,78.00
2023-04-18T15:59:19.440Z,76.30
2023-04-18T16:01:46.382Z,75.50
2023-04-18T16:04:13.489Z,72.30
2023-04-18T16:06:40.655Z,71.50
2023-04-18T16:09:07.408Z,71.30
2023-04-18T16:11:34.174Z,72.40
2023-04-18T16:14:00.940Z,73.40
2023-04-18T16:16:28.487Z,75.10
2023-04-18T16:18:56.003Z,76.10
2023-04-18T16:21:22.735Z,77.00
2023-04-18T16:23:49.493Z,78.10
2023-04-18T16:26:16.311Z,79.20
2023-04-18T16:28:43.041Z,77.70
2023-04-18T16:31:09.825Z,78.40
2023-04-18T16:33:36.758Z,79.40
2023-04-18T16:36:04.535Z,79.00
2023-04-18T16:38:31.275Z,77.70
2023-04-18T16:40:59.716Z,75.90
2023-04-18T16:43:31.064Z,73.80
2023-04-18T16:45:58.006Z,76.60
2023-04-18T16:48:25.871Z,74.80
2023-04-18T16:50:52.587Z,75.00
2023-04-18T16:53:19.308Z,76.80
2023-04-18T16:55:46.124Z,75.30
2023-04-18T16:58:12.910Z,75.10
2023-04-18T17:00:40.574Z,76.80
2023-04-18T17:03:08.039Z,76.10
2023-04-18T17:05:36.278Z,76.00
2023-04-18T17:08:03.841Z,76.70
2023-04-18T17:10:31.364Z,78.10
2023-04-18T17:12:58.859Z,77.00
2023-04-18T17:15:26.114Z,80.70
2023-04-18T17:17:53.443Z,80.70
2023-04-18T17:20:20.526Z,80.10
2023-04-18T17:22:47.253Z,81.40
2023-04-18T17:25:14.116Z,82.30
2023-04-18T17:27:41.404Z,81.60
2023-04-18T17:30:08.393Z,78.50
2023-04-18T17:32:35.350Z,77.80
2023-04-18T17:35:06.466Z,78.90
2023-04-18T17:37:33.336Z,78.40
2023-04-18T17:40:01.465Z,80.20
2023-04-18T17:42:28.193Z,80.50
2023-04-18T17:44:54.914Z,83.10
2023-04-18T17:47:21.705Z,82.30
2023-04-18T17:49:48.478Z,82.70
2023-04-18T17:52:15.306Z,82.80
2023-04-18T17:54:42.184Z,83.60
2023-04-18T17:57:08.952Z,82.20
2023-04-18T17:59:37.842Z,84.10
2023-04-18T18:02:05.307Z,84.30
2023-04-18T18:04:32.309Z,84.50
2023-04-18T18:06:59.219Z,85.60
2023-04-18T18:09:26.028Z,83.70
2023-04-18T18:11:55.381Z,85.10
2023-04-18T18:14:23.153Z,83.00
2023-04-18T18:16:50.037Z,84.10
2023-04-18T18:19:17.088Z,85.70
2023-04-18T18:21:43.825Z,84.90
2023-04-18T18:24:10.973Z,84.40
2023-04-18T18:26:37.661Z,84.60
2023-04-18T18:29:09.258Z,83.40
2023-04-18T18:31:36.325Z,82.00
2023-04-18T18:34:03.131Z,82.40
2023-04-18T18:36:29.990Z,83.50
2023-04-18T18:38:57.530Z,87.50
2023-04-18T18:41:24.388Z,85.30
2023-04-18T18:43:51.281Z,83.70
2023-04-18T18:46:18.286Z,86.10
2023-04-18T18:48:45.109Z,86.00
2023-04-18T18:51:11.908Z,85.20
2023-04-18T18:53:40.335Z,85.90
2023-04-18T18:56:08.725Z,85.20
2023-04-18T18:58:36.003Z,87.80
2023-04-18T19:01:03.388Z,85.20
2023-04-18T19:03:31.329Z,87.80
2023-04-18T19:05:58.165Z,86.90
2023-04-18T19:08:24.984Z,85.40
2023-04-18T19:10:51.828Z,86.80
2023-04-18T19:13:21.441Z,87.00
2023-04-18T19:15:48.313Z,88.30
2023-04-18T19:18:15.354Z,86.50
2023-04-18T19:20:42.223Z,86.70
2023-04-18T19:23:09.075Z,87.20
2023-04-18T19:25:36.049Z,88.30
2023-04-18T19:28:03.385Z,87.30
2023-04-18T19:30:30.176Z,89.00
2023-04-18T19:32:57.002Z,88.70
2023-04-18T19:35:23.834Z,86.80
2023-04-18T19:37:51.227Z,86.50
2023-04-18T19:40:18.007Z,86.50
2023-04-18T19:42:46.091Z,89.30
2023-04-18T19:45:15.143Z,86.00
2023-04-18T19:47:44.254Z,87.50
2023-04-18T19:50:11.496Z,88.20
2023-04-18T19:52:38.311Z,89.50
2023-04-18T19:55:05.249Z,86.20
2023-04-18T19:57:39.001Z,89.00
2023-04-18T20:00:07.398Z,86.00
2023-04-18T20:02:34.266Z,87.20
2023-04-18T20:05:01.363Z,87.60
2023-04-18T20:07:28.175Z,87.20
2023-04-18T20:09:54.889Z,89.30
2023-04-18T20:12:21.899Z,88.60
2023-04-18T20:14:48.594Z,89.90
2023-04-18T20:17:15.486Z,87.80
2023-04-18T20:19:42.318Z,89.20
2023-04-18T20:22:09.006Z,88.90
2023-04-18T20:24:35.730Z,89.50
2023-04-18T20:27:03.094Z,88.00
2023-04-18T20:29:29.847Z,89.10
2023-04-18T20:31:56.664Z,88.60
2023-04-18T20:34:23.471Z,88.30
2023-04-18T20:36:52.436Z,89.90
2023-04-18T20:39:19.121Z,88.30
2023-04-18T20:41:49.348Z,88.70
2023-04-18T20:44:16.834Z,89.70
2023-04-18T20:46:43.509Z,89.50
2023-04-18T20:49:10.543Z,87.30
2023-04-18T20:51:38.074Z,88.50
2023-04-18T20:54:05.142Z,89.60
2023-04-18T20:56:32.401Z,90.40
2023-04-18T20:58:59.470Z,90.00
2023-04-18T21:01:26.301Z,90.50
2023-04-18T21:03:53.425Z,89.60
2023-04-18T21:06:22.083Z,89.60
2023-04-18T21:08:48.942Z,88.80
2023-04-18T21:11:15.793Z,89.80
2023-04-18T21:13:42.493Z,88.10
2023-04-18T21:16:10.300Z,88.60
2023-04-18T21:18:37.172Z,90.00
2023-04-18T21:21:04.311Z,88.30
2023-04-18T21:23:31.038Z,88.30
2023-04-18T21:25:57.859Z,87.50
2023-04-18T21:28:24.570Z,89.30
2023-04-18T21:30:51.313Z,90.10
2023-04-18T21:33:19.307Z,90.20
2023-04-18T21:35:46.009Z,88.80
2023-04-18T21:38:12.721Z,88.60
2023-04-18T21:40:39.515Z,90.40
2023-04-18T21:43:06.216Z,89.70
2023-04-18T21:45:33.720Z,88.50
2023-04-18T21:48:00.677Z,89.10
2023-04-18T21:50:27.394Z,89.30
2023-04-18T21:52:54.089Z,88.70
2023-04-18T21:55:20.857Z,89.40
2023-04-18T21:57:47.566Z,90.30
2023-04-18T22:00:14.463Z,89.30
2023-04-18T22:02:41.362Z,90.40
2023-04-18T22:05:09.043Z,88.70
2023-04-18T22:07:43.269Z,90.20
2023-04-18T22:10:17.804Z,90.20
2023-04-18T22:12:44.598Z,89.30
2023-04-18T22:15:12.256Z,89.60
2023-04-18T22:17:41.793Z,88.40
2023-04-18T22:20:08.986Z,88.90
2023-04-18T22:22:35.781Z,89.50
2023-04-18T22:25:02.773Z,88.90
2023-04-18T22:27:29.566Z,87.50
2023-04-18T22:29:56.243Z,88.30
2023-04-18T22:32:23.065Z,89.40
2023-04-18T22:34:49.965Z,90.40
2023-04-18T22:37:16.700Z,89.90
2023-04-18T22:39:43.513Z,90.20
2023-04-18T22:42:10.384Z,89.50
2023-04-18T22:44:37.220Z,89.80
2023-04-18T22:47:04.207Z,89.70
2023-04-18T22:49:30.901Z,90.20
2023-04-18T22:51:58.637Z,89.70
2023-04-18T22:54:25.882Z,90.10
2023-04-18T22:56:53.449Z,89.90
2023-04-18T22:59:20.324Z,90.30
2023-04-18T23:01:47.155Z,90.10
2023-04-18T23:04:14.301Z,89.70
2023-04-18T23:06:41.556Z,89.60
2023-04-18T23:09:09.779Z,89.60
2023-04-18T23:11:36.681Z,88.00
2023-04-18T23:14:03.598Z,89.30
2023-04-18T23:16:30.681Z,90.50
2023-04-18T23:18:57.433Z,89.70
2023-04-18T23:21:24.269Z,89.80
2023-04-18T23:23:51.544Z,88.50
2023-04-18T23:26:18.420Z,88.40
2023-04-18T23:28:45.300Z,88.90
2023-04-18T23:31:12.571Z,87.70
2023-04-18T23:33:39.312Z,88.30
2023-04-18T23:36:06.659Z,90.10
2023-04-18T23:38:33.577Z,90.20
2023-04-18T23:41:00.555Z,90.20
2023-04-18T23:43:27.277Z,90.00
2023-04-18T23:45:54.347Z,89.20
2023-04-18T23:48:21.227Z,88.60
2023-04-18T23:50:49.129Z,88.70
2023-04-18T23:53:17.538Z,89.80
2023-04-18T23:55:44.342Z,89.00
2023-04-18T23:58:11.118Z,89.70
